Time;durP1;ratioP1;P1;durP2;ratioP2;P2;SDS_P1;SDS_P2;PMS_P1;PMS_P2;Temp;Humidity;BMP_temperature;BMP_pressure;BME280_temperature;BME280_humidity;BME280_pressure;Samples;Min_cycle;Max_cycle;Signal;HPM_P1;HPM_P2
2022/10/19 00:01:41;;;;;;;8.98;5.03;;;;;;;15.76;71.07;99402.25;5093644;28;20024;-46
2022/10/19 00:04:07;;;;;;;12.43;5.40;;;;;;;15.73;71.70;99400.03;5093548;28;20110;-46
2022/10/19 00:06:35;;;;;;;8.57;5.05;;;;;;;15.73;71.74;99404.53;5093470;28;20035;-46
2022/10/19 00:09:03;;;;;;;12.05;6.38;;;;;;;15.80;71.73;99394.69;5092158;28;20099;-46
2022/10/19 00:11:30;;;;;;;15.38;5.43;;;;;;;15.84;71.58;99395.09;5093416;28;20024;-46
2022/10/19 00:13:58;;;;;;;9.82;6.05;;;;;;;15.84;71.54;99390.59;5091989;28;20498;-46
2022/10/19 00:16:27;;;;;;;7.03;5.30;;;;;;;15.86;71.54;99379.78;5091964;28;20035;-46
2022/10/19 00:18:56;;;;;;;8.38;7.50;;;;;;;15.83;71.78;99375.72;5091976;28;20032;-46
2022/10/19 00:21:22;;;;;;;8.30;5.82;;;;;;;15.83;71.93;99372.28;5092979;28;20090;-46
2022/10/19 00:23:48;;;;;;;7.57;6.28;;;;;;;15.72;72.10;99365.84;5091877;28;20436;-46
2022/10/19 00:26:14;;;;;;;9.32;6.40;;;;;;;15.64;72.30;99377.50;5093080;28;20515;-46
2022/10/19 00:28:42;;;;;;;9.50;6.28;;;;;;;15.54;72.61;99370.03;5093169;28;20024;-46
2022/10/19 00:31:11;;;;;;;13.63;6.35;;;;;;;15.51;73.06;99377.59;5093050;28;20020;-46
2022/10/19 00:33:37;;;;;;;11.00;6.07;;;;;;;15.48;73.27;99370.09;5092934;28;20417;-46
2022/10/19 00:36:04;;;;;;;9.85;5.85;;;;;;;15.41;73.23;99377.25;5093166;28;20050;-46
2022/10/19 00:38:30;;;;;;;8.95;5.53;;;;;;;15.32;73.47;99371.44;5092944;28;20059;-46
2022/10/19 00:40:55;;;;;;;10.07;5.32;;;;;;;15.26;73.93;99370.44;5092830;28;20062;-46
2022/10/19 00:43:26;;;;;;;11.18;6.60;;;;;;;15.31;74.02;99378.56;5091818;28;20024;-46
2022/10/19 00:45:52;;;;;;;11.77;6.70;;;;;;;15.33;74.14;99373.88;5092569;28;20058;-46
2022/10/19 00:48:24;;;;;;;11.23;5.95;;;;;;;15.26;73.89;99378.38;5092749;28;20024;-46
2022/10/19 00:50:53;;;;;;;11.77;6.70;;;;;;;15.24;74.02;99382.28;5091701;28;20031;-46
2022/10/19 00:53:19;;;;;;;9.45;5.53;;;;;;;15.21;74.36;99377.41;5092950;28;20556;-46
2022/10/19 00:55:45;;;;;;;9.32;6.15;;;;;;;15.40;74.48;99383.59;5092553;28;20019;-46
2022/10/19 00:58:12;;;;;;;7.38;4.88;;;;;;;15.50;73.59;99383.91;5092654;28;20031;-46
2022/10/19 01:00:38;;;;;;;14.13;6.25;;;;;;;15.49;73.56;99391.06;5092529;28;20080;-46
2022/10/19 01:03:04;;;;;;;10.80;5.22;;;;;;;15.42;73.36;99382.34;5092491;28;20095;-46
2022/10/19 01:05:32;;;;;;;8.60;5.57;;;;;;;15.32;73.53;99382.81;5092421;28;20024;-46
2022/10/19 01:07:59;;;;;;;11.32;5.88;;;;;;;15.30;73.62;99376.13;5092968;28;20085;-46
2022/10/19 01:10:50;;;;;;;9.43;5.63;;;;;;;15.31;74.04;99375.91;5092280;28;20031;-46
2022/10/19 01:13:38;;;;;;;13.18;6.65;;;;;;;15.23;73.93;99370.88;5091044;28;20049;-46
2022/10/19 01:16:23;;;;;;;12.10;6.53;;;;;;;15.21;73.99;99359.69;5092281;28;20024;-46
2022/10/19 01:19:06;;;;;;;11.45;6.07;;;;;;;15.21;74.17;99362.34;5092330;28;20028;-46
2022/10/19 01:21:47;;;;;;;9.55;6.13;;;;;;;15.23;73.96;99360.31;5090508;28;20048;-46
2022/10/19 01:24:35;;;;;;;11.35;6.43;;;;;;;15.14;74.28;99353.66;5090973;28;20490;-46
2022/10/19 01:27:28;;;;;;;12.00;7.28;;;;;;;15.04;74.91;99356.75;5090857;28;20033;-46
2022/10/19 01:30:12;;;;;;;10.90;6.72;;;;;;;15.00;75.15;99350.28;5090881;28;20047;-46
2022/10/19 01:33:03;;;;;;;16.95;7.05;;;;;;;15.02;75.46;99345.59;5092342;28;20509;-46
2022/10/19 01:35:43;;;;;;;17.35;8.98;;;;;;;14.87;75.26;99351.16;5091971;28;20505;-46
2022/10/19 01:38:21;;;;;;;11.52;6.45;;;;;;;14.78;75.51;99355.06;5092009;28;20055;-46
2022/10/19 01:41:04;;;;;;;9.60;6.70;;;;;;;14.67;76.00;99342.50;5091966;28;20100;-46
2022/10/19 01:43:40;;;;;;;13.25;6.47;;;;;;;14.60;76.31;99342.56;5090809;28;20027;-46
2022/10/19 01:46:33;;;;;;;11.82;6.32;;;;;;;14.67;76.32;99343.34;5090588;28;20119;-46
2022/10/19 01:49:25;;;;;;;12.13;6.47;;;;;;;14.78;76.04;99337.38;5091884;28;20019;-46
2022/10/19 01:52:01;;;;;;;7.40;5.43;;;;;;;14.93;75.27;99331.81;5091829;28;20108;-46
2022/10/19 01:54:33;;;;;;;15.02;6.90;;;;;;;14.97;75.13;99333.00;5073537;28;20043;-46
2022/10/19 01:57:01;;;;;;;10.27;6.03;;;;;;;15.07;75.09;99324.63;5091779;28;20024;-46
2022/10/19 01:59:27;;;;;;;12.93;5.78;;;;;;;15.12;74.67;99327.41;5094392;28;20490;-46
2022/10/19 02:01:54;;;;;;;10.10;6.38;;;;;;;15.06;74.56;99324.81;5094884;28;20028;-46
2022/10/19 02:04:22;;;;;;;11.70;6.53;;;;;;;15.04;74.57;99318.94;5095840;28;20490;-46
2022/10/19 02:06:51;;;;;;;10.30;6.72;;;;;;;15.11;74.59;99319.69;5094492;28;20027;-46
2022/10/19 02:09:18;;;;;;;16.30;8.30;;;;;;;15.25;74.62;99313.31;5095768;28;20054;-46
2022/10/19 02:11:53;;;;;;;8.38;5.97;;;;;;;15.47;74.10;99313.72;5094791;28;20070;-46
2022/10/19 02:14:23;;;;;;;12.27;5.93;;;;;;;15.62;73.35;99316.03;5094644;28;20031;-46
2022/10/19 02:16:56;;;;;;;9.88;5.70;;;;;;;15.67;72.59;99302.94;5095589;28;20114;-46
2022/10/19 02:19:22;;;;;;;9.32;5.95;;;;;;;15.48;72.43;99299.47;5094414;28;20050;-46
2022/10/19 02:21:49;;;;;;;10.82;6.32;;;;;;;15.17;72.82;99303.81;5093973;28;20040;-46
2022/10/19 02:24:14;;;;;;;13.45;7.05;;;;;;;14.87;74.25;99295.66;5095511;28;20054;-46
2022/10/19 02:26:41;;;;;;;9.20;5.82;;;;;;;14.68;75.02;99291.31;5095408;28;20020;-46
2022/10/19 02:29:09;;;;;;;13.02;5.88;;;;;;;14.58;75.53;99289.13;5094364;28;20074;-46
2022/10/19 02:31:35;;;;;;;11.45;5.53;;;;;;;14.62;75.44;99292.97;5095376;28;20099;-46
2022/10/19 02:34:01;;;;;;;9.20;6.03;;;;;;;14.63;75.82;99283.19;5094246;28;20392;-46
2022/10/19 02:36:27;;;;;;;14.77;6.40;;;;;;;14.74;75.72;99275.41;5095310;28;20024;-46
2022/10/19 02:38:52;;;;;;;17.90;8.80;;;;;;;14.81;75.35;99280.66;5095285;28;20012;-46
2022/10/19 02:41:32;;;;;;;10.98;6.85;;;;;;;14.75;75.25;99276.25;5094168;28;20032;-46
2022/10/19 02:44:06;;;;;;;13.73;6.22;;;;;;;14.79;75.52;99277.44;5095261;28;20104;-46
2022/10/19 02:46:44;;;;;;;10.93;6.57;;;;;;;14.85;75.16;99278.38;5095413;28;20113;-46
2022/10/19 02:49:11;;;;;;;10.55;6.85;;;;;;;14.81;74.75;99283.31;5093889;28;20032;-46
2022/10/19 02:51:40;;;;;;;11.95;7.00;;;;;;;14.69;75.29;99284.97;5094991;28;20023;-46
2022/10/19 02:54:07;;;;;;;12.38;7.05;;;;;;;14.53;75.73;99281.81;5093516;28;20024;-46
2022/10/19 02:56:34;;;;;;;10.43;6.78;;;;;;;14.41;76.35;99278.22;5094897;28;20107;-46
2022/10/19 02:59:01;;;;;;;9.20;6.40;;;;;;;14.37;76.52;99279.66;5095215;28;20020;-46
2022/10/19 03:01:27;;;;;;;15.10;7.20;;;;;;;14.42;76.87;99286.94;5093502;28;20070;-46
2022/10/19 03:03:53;;;;;;;9.95;7.07;;;;;;;14.48;76.79;99289.53;5093700;28;20481;-46
2022/10/19 03:06:18;;;;;;;13.18;6.18;;;;;;;14.67;76.42;99279.94;5094657;28;20099;-46
2022/10/19 03:08:44;;;;;;;11.45;6.88;;;;;;;14.77;75.76;99277.63;5094690;28;20059;-46
2022/10/19 03:11:10;;;;;;;11.68;6.72;;;;;;;14.77;75.33;99276.84;5094384;28;20474;-46
2022/10/19 03:13:35;;;;;;;11.18;6.13;;;;;;;14.76;75.27;99283.13;5094582;28;20013;-46
2022/10/19 03:16:09;;;;;;;13.02;6.10;;;;;;;14.75;75.48;99271.75;5094445;28;20027;-46
2022/10/19 03:18:34;;;;;;;15.05;6.90;;;;;;;14.77;75.46;99282.13;5094489;28;20107;-46
2022/10/19 03:21:02;;;;;;;11.93;6.40;;;;;;;14.80;75.16;99271.09;5094163;28;20123;-46
2022/10/19 03:23:28;;;;;;;15.07;6.78;;;;;;;14.81;75.09;99271.91;5094397;28;20024;-46
2022/10/19 03:25:54;;;;;;;10.05;7.65;;;;;;;14.83;75.11;99269.88;5094338;28;20016;-46
2022/10/19 03:28:20;;;;;;;11.00;7.93;;;;;;;14.66;75.55;99262.44;5092954;28;20405;-46
2022/10/19 03:30:45;;;;;;;12.80;8.55;;;;;;;14.49;76.19;99254.19;5094277;28;20367;-46
2022/10/19 03:33:11;;;;;;;12.68;7.88;;;;;;;14.35;77.23;99256.09;5094207;28;20177;-46
2022/10/19 03:35:36;;;;;;;14.13;9.75;;;;;;;14.26;77.84;99256.53;5092786;28;20023;-46
2022/10/19 03:38:02;;;;;;;16.02;11.43;;;;;;;14.24;78.36;99258.59;5094140;28;20028;-46
2022/10/19 03:40:28;;;;;;;13.18;8.88;;;;;;;14.25;78.18;99258.38;5094085;28;20124;-46
2022/10/19 03:42:53;;;;;;;11.77;8.80;;;;;;;14.35;78.45;99260.56;5094077;28;20031;-46
2022/10/19 03:45:19;;;;;;;14.52;7.15;;;;;;;14.38;78.26;99260.94;5093974;28;20332;-46
2022/10/19 03:47:48;;;;;;;17.05;8.13;;;;;;;14.40;78.26;99255.44;5094000;28;20482;-46
2022/10/19 03:50:15;;;;;;;14.20;7.28;;;;;;;14.44;78.00;99250.56;5093877;28;20016;-46
2022/10/19 03:52:42;;;;;;;15.00;6.95;;;;;;;14.48;77.67;99246.47;5092883;28;20406;-46
2022/10/19 03:55:09;;;;;;;12.82;7.28;;;;;;;14.49;77.61;99246.28;5093997;28;20103;-46
2022/10/19 03:57:35;;;;;;;11.10;7.68;;;;;;;14.45;77.76;99249.56;5093726;28;20024;-46
2022/10/19 04:00:01;;;;;;;12.85;6.85;;;;;;;14.42;78.03;99263.16;5093923;28;20028;-46
2022/10/19 04:02:28;;;;;;;8.38;5.85;;;;;;;14.46;77.84;99251.97;5092626;28;20035;-46
2022/10/19 04:04:53;;;;;;;15.55;7.47;;;;;;;14.43;77.88;99251.56;5093599;28;20111;-46
2022/10/19 04:07:19;;;;;;;10.90;6.80;;;;;;;14.44;78.08;99253.22;5092190;28;20131;-46
2022/10/19 04:09:45;;;;;;;13.95;6.93;;;;;;;14.43;78.13;99249.75;5093491;28;20070;-46
2022/10/19 04:12:10;;;;;;;11.98;6.93;;;;;;;14.44;77.79;99251.38;5093418;28;20017;-46
2022/10/19 04:14:37;;;;;;;10.70;6.28;;;;;;;14.39;77.49;99253.84;5092016;28;20016;-46
2022/10/19 04:17:04;;;;;;;12.85;6.47;;;;;;;14.34;77.81;99256.28;5093304;28;20107;-46
2022/10/19 04:19:30;;;;;;;10.32;6.32;;;;;;;14.46;77.90;99259.09;5093316;28;20027;-46
2022/10/19 04:21:56;;;;;;;9.55;6.45;;;;;;;14.55;77.86;99257.84;5091151;28;20127;-46
2022/10/19 04:24:22;;;;;;;16.77;7.53;;;;;;;14.43;77.24;99255.03;5091897;28;20452;-46
2022/10/19 04:26:51;;;;;;;11.43;8.13;;;;;;;14.30;77.73;99247.97;5093152;28;20024;-46
2022/10/19 04:29:18;;;;;;;13.57;7.57;;;;;;;14.14;78.23;99251.09;5091846;28;20059;-46
2022/10/19 04:31:44;;;;;;;11.07;6.93;;;;;;;14.01;78.78;99261.72;5093084;28;20031;-46
2022/10/19 04:34:11;;;;;;;15.30;7.30;;;;;;;14.00;79.04;99255.63;5092987;28;20024;-46
2022/10/19 04:36:37;;;;;;;10.95;6.63;;;;;;;14.22;78.97;99265.91;5074897;28;20417;-46
2022/10/19 04:39:04;;;;;;;22.20;7.38;;;;;;;14.39;78.39;99267.06;5092936;28;20016;-46
2022/10/19 04:41:30;;;;;;;8.60;6.68;;;;;;;14.48;78.20;99267.59;5092917;28;20493;-46
2022/10/19 04:43:58;;;;;;;17.23;6.70;;;;;;;14.44;77.89;99253.22;5091579;28;20020;-46
2022/10/19 04:46:25;;;;;;;12.23;6.35;;;;;;;14.49;77.75;99242.84;5074834;28;20036;-46
2022/10/19 04:48:52;;;;;;;12.13;7.25;;;;;;;14.44;77.55;99242.66;5092689;28;20041;-46
2022/10/19 04:51:18;;;;;;;11.57;6.72;;;;;;;14.38;77.57;99242.44;5091664;28;20545;-46
2022/10/19 04:53:44;;;;;;;12.77;7.30;;;;;;;14.33;77.35;99244.13;5091378;28;20028;-46
2022/10/19 04:56:19;;;;;;;10.57;5.78;;;;;;;14.24;77.48;99248.81;5092537;28;20027;-46
2022/10/19 04:58:45;;;;;;;16.80;8.27;;;;;;;14.16;77.84;99241.16;5091360;28;20028;-46
2022/10/19 05:01:20;;;;;;;20.08;8.85;;;;;;;14.24;78.41;99242.75;5091234;28;20402;-46
2022/10/19 05:03:47;;;;;;;18.13;8.17;;;;;;;14.22;78.81;99236.88;5092527;28;20113;-46
2022/10/19 05:06:13;;;;;;;9.93;7.70;;;;;;;14.15;79.20;99242.97;5092416;28;20026;-46
2022/10/19 05:08:39;;;;;;;12.30;7.00;;;;;;;14.13;79.29;99237.09;5091143;28;20020;-46
2022/10/19 05:11:09;;;;;;;16.95;8.18;;;;;;;14.17;79.38;99240.13;5092610;28;20025;-46
2022/10/19 05:13:35;;;;;;;10.93;6.47;;;;;;;14.18;79.18;99236.47;5091008;28;20051;-46
2022/10/19 05:16:04;;;;;;;9.88;6.78;;;;;;;14.24;79.34;99232.97;5092184;28;20028;-46
2022/10/19 05:18:30;;;;;;;13.43;7.28;;;;;;;14.28;79.06;99223.63;5090967;28;20020;-46
2022/10/19 05:21:07;;;;;;;12.38;7.95;;;;;;;14.34;78.74;99214.84;5090680;28;20055;-46
2022/10/19 05:23:34;;;;;;;11.77;7.68;;;;;;;14.32;78.71;99210.81;5092235;28;20081;-46
2022/10/19 05:26:11;;;;;;;15.00;7.38;;;;;;;14.32;78.76;99202.88;5092057;28;20108;-46
2022/10/19 05:28:37;;;;;;;11.23;7.03;;;;;;;14.31;78.51;99196.00;5092094;28;20034;-46
2022/10/19 05:31:06;;;;;;;14.63;7.28;;;;;;;14.25;78.93;99205.56;5091999;28;20024;-46
2022/10/19 05:33:32;;;;;;;10.38;7.05;;;;;;;14.33;79.95;99196.59;5091197;28;20498;-46
2022/10/19 05:35:57;;;;;;;15.48;7.55;;;;;;;14.39;78.99;99198.41;5091863;28;20039;-46
2022/10/19 05:38:23;;;;;;;11.95;7.40;;;;;;;14.33;78.76;99200.03;5091999;28;20020;-46
2022/10/19 05:40:48;;;;;;;9.57;6.50;;;;;;;14.34;78.59;99196.38;5091983;28;20020;-46
2022/10/19 05:43:14;;;;;;;13.52;6.15;;;;;;;14.36;78.30;99202.25;5090901;28;20389;-46
2022/10/19 05:45:40;;;;;;;10.98;6.00;;;;;;;14.38;78.44;99207.31;5090643;28;20406;-45
2022/10/19 05:48:05;;;;;;;18.27;6.72;;;;;;;14.40;78.50;99202.63;5090877;28;20028;-46
2022/10/19 05:50:31;;;;;;;14.65;6.22;;;;;;;14.42;78.20;99197.97;5091877;28;20099;-46
2022/10/19 05:52:57;;;;;;;12.35;6.57;;;;;;;14.44;78.07;99203.03;5090477;28;20021;-46
2022/10/19 05:55:22;;;;;;;11.90;6.90;;;;;;;14.47;78.29;99198.13;5090738;28;20036;-45
2022/10/19 05:57:48;;;;;;;16.30;6.57;;;;;;;14.47;78.13;99184.13;5091701;28;20506;-46
2022/10/19 06:00:14;;;;;;;13.98;6.72;;;;;;;14.48;78.15;99181.25;5090438;28;20055;-46
2022/10/19 06:02:40;;;;;;;13.80;6.40;;;;;;;14.53;77.94;99178.00;5091774;28;20561;-45
2022/10/19 06:05:06;;;;;;;14.20;6.90;;;;;;;14.58;77.65;99178.19;5091662;28;20024;-46
2022/10/19 06:07:31;;;;;;;11.80;6.75;;;;;;;14.60;77.49;99178.78;5091730;28;20020;-46
2022/10/19 06:09:57;;;;;;;12.90;6.20;;;;;;;14.67;77.59;99189.28;5090300;28;20071;-46
2022/10/19 06:12:23;;;;;;;14.02;6.47;;;;;;;14.86;76.92;99179.59;5090380;28;20024;-46
2022/10/19 06:14:51;;;;;;;11.95;6.82;;;;;;;14.96;76.33;99182.56;5091576;28;20406;-46
2022/10/19 06:17:17;;;;;;;20.35;6.18;;;;;;;15.11;76.00;99172.47;5091578;28;20030;-46
2022/10/19 06:19:42;;;;;;;10.55;5.82;;;;;;;15.09;75.29;99176.34;5090271;28;20040;-46
2022/10/19 06:22:08;;;;;;;15.70;7.75;;;;;;;15.12;75.50;99181.22;5090053;28;20039;-46
2022/10/19 06:24:34;;;;;;;11.65;6.85;;;;;;;15.02;74.53;99171.13;5090476;28;20034;-46
2022/10/19 06:26:59;;;;;;;15.35;6.93;;;;;;;14.84;75.11;99174.53;5090473;28;20035;-46
2022/10/19 06:29:29;;;;;;;12.60;6.38;;;;;;;14.87;75.29;99174.09;5091521;28;20021;-46
2022/10/19 06:31:55;;;;;;;12.80;6.28;;;;;;;15.03;74.74;99177.22;5091468;28;20059;-46
2022/10/19 06:34:20;;;;;;;19.35;6.55;;;;;;;15.17;74.84;99176.88;5091387;28;20017;-46
2022/10/19 06:36:46;;;;;;;14.95;5.68;;;;;;;15.42;74.40;99180.53;5091450;28;20031;-46
2022/10/19 06:39:12;;;;;;;19.70;7.00;;;;;;;16.06;72.54;99178.38;5090369;28;20020;-46
2022/10/19 06:41:37;;;;;;;14.30;6.00;;;;;;;16.80;69.89;99172.81;5090360;28;20078;-46
2022/10/19 06:44:03;;;;;;;21.35;6.30;;;;;;;17.44;67.29;99167.66;5090519;28;20107;-46
2022/10/19 06:46:29;;;;;;;13.25;5.80;;;;;;;17.89;65.04;99161.69;5095064;28;20379;-46
2022/10/19 06:48:57;;;;;;;16.67;6.00;;;;;;;18.26;64.23;99166.63;5094089;28;20059;-44
2022/10/19 06:51:24;;;;;;;16.42;6.15;;;;;;;18.91;62.87;99174.13;5093702;28;20032;-44
2022/10/19 06:53:51;;;;;;;15.27;7.60;;;;;;;19.45;59.88;99162.88;5076766;28;20074;-44
2022/10/19 06:56:17;;;;;;;9.45;5.65;;;;;;;19.53;58.66;99170.44;5094928;28;20131;-44
2022/10/19 06:58:43;;;;;;;13.93;5.45;;;;;;;19.48;58.44;99174.91;5093558;28;20032;-44
2022/10/19 07:01:10;;;;;;;12.32;5.38;;;;;;;19.64;58.53;99182.03;5093505;28;20020;-44
2022/10/19 07:03:36;;;;;;;9.98;5.38;;;;;;;20.00;57.82;99185.16;5095122;28;20016;-44
2022/10/19 07:06:05;;;;;;;14.38;5.30;;;;;;;20.43;56.52;99179.97;5093405;28;20035;-44
2022/10/19 07:08:31;;;;;;;15.98;6.00;;;;;;;20.75;55.23;99185.34;5093397;28;20027;-44
2022/10/19 07:11:00;;;;;;;15.55;6.40;;;;;;;20.90;53.99;99190.00;5093338;28;20046;-44
2022/10/19 07:13:27;;;;;;;17.95;5.85;;;;;;;20.83;54.13;99192.88;5093301;28;20141;-44
2022/10/19 07:16:02;;;;;;;17.08;5.60;;;;;;;20.64;54.17;99195.13;5093157;28;20051;-44
2022/10/19 07:18:28;;;;;;;12.43;5.72;;;;;;;20.49;55.05;99194.97;5094576;28;20070;-44
2022/10/19 07:20:56;;;;;;;12.98;6.45;;;;;;;20.53;55.56;99190.75;5092857;28;20055;-44
2022/10/19 07:23:22;;;;;;;16.70;6.13;;;;;;;20.39;55.06;99190.34;5093294;28;20016;-44
2022/10/19 07:25:48;;;;;;;10.68;5.68;;;;;;;20.00;56.45;99193.16;5093042;28;20056;-44
2022/10/19 07:28:13;;;;;;;22.15;6.15;;;;;;;20.01;56.83;99189.41;5094632;28;20442;-45
2022/10/19 07:30:39;;;;;;;14.68;6.13;;;;;;;20.17;56.27;99184.25;5092996;28;20513;-44
2022/10/19 07:33:05;;;;;;;19.58;6.78;;;;;;;20.18;55.72;99180.53;5094187;28;20096;-44
2022/10/19 07:35:31;;;;;;;11.38;6.43;;;;;;;19.77;56.96;99186.22;5094068;28;20043;-44
2022/10/19 07:37:57;;;;;;;10.60;6.00;;;;;;;19.17;58.20;99193.09;5093169;28;20486;-44
2022/10/19 07:40:22;;;;;;;14.40;5.90;;;;;;;18.54;60.20;99179.06;5094119;28;20494;-44
2022/10/19 07:42:48;;;;;;;11.98;5.65;;;;;;;18.55;61.16;99184.16;5092974;28;20020;-44
2022/10/19 07:45:14;;;;;;;17.48;5.80;;;;;;;19.30;60.16;99184.78;5092981;28;20032;-44
2022/10/19 07:47:39;;;;;;;19.60;5.97;;;;;;;20.31;57.64;99180.94;5093860;28;20028;-44
2022/10/19 07:50:05;;;;;;;15.23;5.28;;;;;;;21.18;55.07;99178.16;5093892;28;20032;-44
2022/10/19 07:52:32;;;;;;;9.60;5.00;;;;;;;21.89;53.26;99179.59;5093907;28;20509;-44
2022/10/19 07:54:59;;;;;;;14.93;5.47;;;;;;;22.36;51.90;99172.53;5093974;28;20539;-45
2022/10/19 07:57:25;;;;;;;11.35;4.90;;;;;;;22.77;50.27;99169.84;5091728;28;20035;-45
2022/10/19 07:59:51;;;;;;;14.07;4.47;;;;;;;23.14;48.95;99180.28;5093714;28;20024;-45
2022/10/19 08:02:17;;;;;;;12.60;4.93;;;;;;;23.58;47.89;99176.13;5093721;28;20050;-45
2022/10/19 08:04:43;;;;;;;15.82;4.60;;;;;;;23.99;46.52;99171.44;5093574;28;20035;-45
2022/10/19 08:07:09;;;;;;;17.50;5.15;;;;;;;24.64;45.89;99175.84;5093605;28;20481;-45
2022/10/19 08:09:35;;;;;;;14.95;4.45;;;;;;;25.14;44.93;99168.41;5093549;28;20028;-45
2022/10/19 08:12:01;;;;;;;9.95;4.40;;;;;;;25.39;43.99;99169.22;5093413;28;20034;-45
2022/10/19 08:14:27;;;;;;;11.48;4.45;;;;;;;25.79;43.07;99164.44;5093377;28;20020;-45
2022/10/19 08:16:53;;;;;;;14.55;4.93;;;;;;;26.31;42.75;99159.97;5093375;28;20074;-45
2022/10/19 08:19:18;;;;;;;14.70;5.80;;;;;;;26.49;41.54;99164.53;5093316;28;20028;-45
2022/10/19 08:21:45;;;;;;;13.38;4.82;;;;;;;26.53;41.40;99159.34;5093042;28;20190;-45
2022/10/19 08:24:16;;;;;;;17.35;5.28;;;;;;;26.99;40.56;99166.69;5093268;28;20098;-45
2022/10/19 08:26:42;;;;;;;11.45;4.40;;;;;;;27.56;38.48;99160.22;5091852;28;20032;-45
2022/10/19 08:29:17;;;;;;;9.38;3.83;;;;;;;27.31;37.62;99159.66;5091871;28;20030;-45
2022/10/19 08:31:44;;;;;;;11.32;3.38;;;;;;;27.08;37.97;99166.78;5093265;28;20566;-45
2022/10/19 08:34:11;;;;;;;8.07;3.60;;;;;;;26.72;38.31;99158.53;5093000;28;20405;-45
2022/10/19 08:36:37;;;;;;;9.93;3.83;;;;;;;26.30;38.90;99155.69;5093003;28;20047;-45
2022/10/19 08:39:05;;;;;;;11.15;3.53;;;;;;;25.97;39.69;99160.22;5091630;28;20060;-45
2022/10/19 08:41:40;;;;;;;10.18;4.03;;;;;;;25.95;40.38;99160.50;5092909;28;20027;-45
2022/10/19 08:44:25;;;;;;;14.70;4.50;;;;;;;26.29;40.00;99156.78;5092860;28;20021;-45
2022/10/19 08:46:57;;;;;;;16.67;3.90;;;;;;;26.84;39.26;99151.59;5093054;28;20119;-45
2022/10/19 08:49:26;;;;;;;16.75;4.20;;;;;;;27.09;38.85;99146.84;5092768;28;20561;-45
2022/10/19 08:51:58;;;;;;;10.90;4.00;;;;;;;27.24;38.35;99149.25;5091413;28;20480;-45
2022/10/19 08:54:34;;;;;;;11.80;3.63;;;;;;;27.44;38.01;99141.88;5092625;28;20035;-45
2022/10/19 08:57:27;;;;;;;9.95;3.65;;;;;;;26.88;38.13;99141.84;5092667;28;20486;-45
2022/10/19 09:00:10;;;;;;;13.15;3.90;;;;;;;26.22;39.04;99145.56;5092633;28;20024;-45
2022/10/19 09:03:13;;;;;;;22.98;4.50;;;;;;;25.70;40.22;99142.78;5092573;28;20028;-45
2022/10/19 09:05:48;;;;;;;14.93;4.18;;;;;;;25.75;40.59;99133.84;5092504;28;20039;-45
2022/10/19 09:08:14;;;;;;;10.50;3.50;;;;;;;25.96;40.34;99132.53;5092302;28;20040;-45
2022/10/19 09:10:44;;;;;;;16.48;4.55;;;;;;;26.41;39.63;99140.19;5092784;28;20119;-45
2022/10/19 09:13:34;;;;;;;7.78;3.83;;;;;;;27.69;37.39;99144.03;5074974;28;20036;-45
2022/10/19 09:16:01;;;;;;;13.80;3.33;;;;;;;28.35;35.39;99156.34;5092175;28;20501;-45
2022/10/19 09:18:34;;;;;;;10.60;3.67;;;;;;;28.49;35.45;99152.50;5090940;28;20080;-45
2022/10/19 09:21:24;;;;;;;8.93;3.03;;;;;;;28.37;35.05;99141.47;5090568;28;20047;-45
2022/10/19 09:24:06;;;;;;;16.85;3.28;;;;;;;27.95;36.32;99143.53;5092159;28;20020;-45
2022/10/19 09:26:59;;;;;;;13.43;4.13;;;;;;;28.46;35.54;99144.22;5092467;28;20028;-45
2022/10/19 09:29:45;;;;;;;12.10;3.83;;;;;;;28.74;34.81;99141.41;5091943;28;20060;-45
2022/10/19 09:32:33;;;;;;;11.63;3.80;;;;;;;29.26;33.35;99138.94;5092157;28;20489;-45
2022/10/19 09:35:20;;;;;;;10.40;3.42;;;;;;;29.33;32.66;99135.78;5084303;28;20110;-46
2022/10/19 09:37:50;;;;;;;21.05;4.32;;;;;;;29.13;33.23;99135.22;5090143;28;20079;-45
2022/10/19 09:40:25;;;;;;;9.00;3.28;;;;;;;29.34;32.96;99138.19;5090919;28;20020;-46
2022/10/19 09:42:56;;;;;;;11.75;4.20;;;;;;;29.44;31.88;99135.19;5090602;28;20083;-45
2022/10/19 09:45:52;;;;;;;16.67;3.78;;;;;;;29.89;31.50;99131.44;5091949;28;20028;-46
2022/10/19 09:48:30;;;;;;;14.27;3.90;;;;;;;30.47;30.99;99118.53;5090598;28;20401;-46
2022/10/19 09:50:58;;;;;;;12.93;3.33;;;;;;;30.96;29.89;99112.81;5090524;28;20050;-46
2022/10/19 09:53:25;;;;;;;11.95;2.97;;;;;;;30.75;30.53;99116.22;5091850;28;20024;-46
2022/10/19 09:56:18;;;;;;;10.68;3.25;;;;;;;30.73;30.92;99114.97;5091611;28;20758;-46
2022/10/19 09:58:54;;;;;;;13.23;3.70;;;;;;;30.54;31.11;99121.53;5083891;28;20551;-46
2022/10/19 10:01:32;;;;;;;14.60;3.63;;;;;;;30.61;31.12;99115.63;5090421;28;20039;-46
2022/10/19 10:04:09;;;;;;;9.57;3.22;;;;;;;30.82;30.71;99111.06;5073806;28;20543;-46
2022/10/19 10:06:37;;;;;;;11.27;3.40;;;;;;;30.70;31.30;99099.34;5091682;28;20062;-46
2022/10/19 10:09:04;;;;;;;12.05;3.60;;;;;;;30.74;31.43;99106.50;5091702;28;20028;-46
2022/10/19 10:11:33;;;;;;;13.00;3.75;;;;;;;30.77;31.83;99103.16;5091710;28;20047;-46
2022/10/19 10:14:16;;;;;;;11.93;3.63;;;;;;;30.87;31.37;99096.56;5091599;28;20405;-46
2022/10/19 10:16:42;;;;;;;11.48;3.60;;;;;;;30.64;31.91;99098.72;5091619;28;20024;-46
2022/10/19 10:19:14;;;;;;;16.52;3.08;;;;;;;30.22;31.91;99090.34;5090668;28;20024;-46
2022/10/19 10:21:47;;;;;;;10.73;3.80;;;;;;;30.22;32.68;99093.03;5095434;28;20040;-46
2022/10/19 10:24:15;;;;;;;11.18;3.35;;;;;;;30.74;32.19;99101.06;5095570;28;20105;-46
2022/10/19 10:26:56;;;;;;;8.88;3.55;;;;;;;31.17;30.94;99097.41;5094129;28;20106;-45
2022/10/19 10:29:31;;;;;;;21.38;4.38;;;;;;;31.17;31.54;99089.28;5094232;28;20501;-45
2022/10/19 10:32:17;;;;;;;13.10;3.58;;;;;;;31.13;31.53;99082.09;5095654;28;20066;-46
2022/10/19 10:35:00;;;;;;;15.48;3.50;;;;;;;30.85;31.82;99077.13;5094352;28;20085;-46
2022/10/19 10:37:41;;;;;;;9.40;3.50;;;;;;;29.97;33.41;99060.28;5095475;28;20032;-45
2022/10/19 10:40:18;;;;;;;8.55;3.40;;;;;;;29.44;34.58;99062.16;5094023;28;20107;-46
2022/10/19 10:42:46;;;;;;;15.45;3.75;;;;;;;29.54;34.29;99063.78;5093990;28;20040;-45
2022/10/19 10:45:21;;;;;;;11.32;3.10;;;;;;;29.56;34.65;99068.84;5095160;28;20047;-46
2022/10/19 10:47:47;;;;;;;11.38;3.80;;;;;;;29.75;34.30;99061.25;5095234;28;20047;-46
2022/10/19 10:50:31;;;;;;;17.02;3.53;;;;;;;29.62;34.50;99064.88;5095094;28;20580;-46
2022/10/19 10:53:02;;;;;;;13.05;3.03;;;;;;;28.70;35.83;99064.78;5095128;28;20024;-45
2022/10/19 10:55:30;;;;;;;20.10;4.45;;;;;;;28.24;36.64;99064.03;5094915;28;20016;-45
2022/10/19 10:58:20;;;;;;;12.52;3.58;;;;;;;27.65;37.69;99070.25;5093960;28;20385;-45
2022/10/19 11:00:49;;;;;;;13.70;5.65;;;;;;;27.38;38.15;99073.78;5094927;28;20028;-45
2022/10/19 11:03:28;;;;;;;10.27;3.72;;;;;;;27.58;38.28;99061.75;5094873;28;20020;-46
2022/10/19 11:05:58;;;;;;;20.25;5.90;;;;;;;27.42;38.07;99072.06;5094772;28;20055;-45
2022/10/19 11:08:48;;;;;;;11.80;3.40;;;;;;;26.98;39.00;99054.63;5094861;28;20038;-45
2022/10/19 11:11:21;;;;;;;11.82;3.97;;;;;;;26.56;40.11;99051.09;5093426;28;20328;-45
2022/10/19 11:14:28;;;;;;;13.30;3.90;;;;;;;26.74;39.77;99043.25;5093368;28;20034;-46
2022/10/19 11:16:57;;;;;;;14.52;6.15;;;;;;;27.16;39.66;99044.84;5094551;28;20040;-45
2022/10/19 11:19:32;;;;;;;12.55;4.63;;;;;;;27.62;39.10;99041.16;5093361;28;20032;-46
2022/10/19 11:22:27;;;;;;;12.13;5.25;;;;;;;28.24;38.61;99034.34;5092929;28;20046;-45
2022/10/19 11:25:02;;;;;;;10.45;3.33;;;;;;;29.04;36.52;99031.69;5094379;28;20028;-46
2022/10/19 11:27:34;;;;;;;8.30;3.25;;;;;;;29.74;34.96;99031.78;5093144;28;20024;-46
2022/10/19 11:30:16;;;;;;;7.57;3.28;;;;;;;30.02;34.46;99026.84;5094296;28;20344;-46
2022/10/19 11:33:03;;;;;;;10.93;3.40;;;;;;;30.29;34.28;99017.53;5093005;28;20031;-45
2022/10/19 11:35:32;;;;;;;13.35;3.90;;;;;;;30.70;34.10;99026.97;5092798;28;20027;-46
2022/10/19 11:38:03;;;;;;;15.45;4.30;;;;;;;30.52;34.50;99022.75;5092831;28;20525;-45
2022/10/19 11:40:29;;;;;;;11.55;3.10;;;;;;;30.04;34.46;99017.28;5094106;28;20568;-45
2022/10/19 11:43:09;;;;;;;12.43;3.22;;;;;;;29.55;35.32;99008.53;5094085;28;20091;-45